sim
Sign-in with your pilot id or email,
or register
Callsign
Passwort

Schedule Details

Flight Number: DLH2402
Departure: Munich Airport (EDDM) at 20:45
Arrival: Basel Mulhouse-Freiburg EuroAirport (LFSB) at 21:40
Route: Lufthansa Passenger Schedule. Enter filed route here before submitting Pirep.

Weather Information
Getting current METAR information for EDDM 291720Z 26006KT 9999 SCT017 BKN030 11/09 Q1019 NOSIG
Getting current METAR information for LFSB 291700Z 10003KT 9999 FEW020 BKN063 BKN100 14/11 Q1019 NOSIG

Schedule Frequency

Route Map